Time;durP1;ratioP1;P1;durP2;ratioP2;P2;SDS_P1;SDS_P2;PMS_P1;PMS_P2;Temp;Humidity;BMP_temperature;BMP_pressure;BME280_temperature;BME280_humidity;BME280_pressure;Samples;Min_cycle;Max_cycle;Signal;HPM_P1;HPM_P2
2021/01/01 00:01:07;;;;;;;44.00;22.02;;;7.10;93.50;;;;;;5053213;28;20047;-68
2021/01/01 00:03:33;;;;;;;44.65;22.17;;;7.00;93.50;;;;;;5051929;28;20025;-69
2021/01/01 00:05:58;;;;;;;48.85;23.27;;;7.00;93.50;;;;;;5051543;28;20064;-68
2021/01/01 00:08:24;;;;;;;48.95;21.75;;;7.00;93.50;;;;;;5052749;28;20467;-70
2021/01/01 00:10:52;;;;;;;45.08;22.23;;;6.90;93.50;;;;;;5051504;28;20028;-70
2021/01/01 00:13:18;;;;;;;45.22;21.98;;;6.90;93.50;;;;;;5052912;28;20502;-68
2021/01/01 00:15:44;;;;;;;47.10;22.92;;;6.90;93.60;;;;;;5043970;28;20418;-68
2021/01/01 00:18:10;;;;;;;53.42;25.55;;;6.90;93.60;;;;;;5052363;28;20066;-69
2021/01/01 00:20:41;;;;;;;50.83;25.67;;;6.90;93.60;;;;;;5047613;28;20022;-69
2021/01/01 00:23:08;;;;;;;46.55;22.20;;;6.90;93.60;;;;;;5041873;28;20034;-69
2021/01/01 00:25:34;;;;;;;53.58;24.98;;;6.90;93.60;;;;;;5041889;28;20060;-69
2021/01/01 00:28:00;;;;;;;55.03;24.83;;;6.90;93.70;;;;;;5047813;28;20475;-69
2021/01/01 00:30:25;;;;;;;48.88;23.95;;;6.90;93.80;;;;;;5052916;28;20025;-68
2021/01/01 00:32:51;;;;;;;42.35;22.90;;;6.90;93.80;;;;;;5051135;28;20049;-69
2021/01/01 00:35:17;;;;;;;41.53;21.10;;;6.90;93.90;;;;;;5052634;28;20589;-69
2021/01/01 00:37:43;;;;;;;44.72;21.88;;;6.90;93.90;;;;;;5051426;28;20025;-69
2021/01/01 00:40:09;;;;;;;44.63;20.70;;;7.00;93.80;;;;;;5051285;28;20576;-70
2021/01/01 00:42:36;;;;;;;41.72;20.20;;;7.00;93.80;;;;;;5051268;28;20025;-69
2021/01/01 00:45:05;;;;;;;45.78;22.55;;;7.00;93.80;;;;;;5050158;28;20055;-69
2021/01/01 00:47:30;;;;;;;48.60;22.48;;;7.00;93.80;;;;;;5044601;28;20021;-69
2021/01/01 00:49:56;;;;;;;41.25;20.45;;;7.00;94.00;;;;;;5056333;28;20021;-69
2021/01/01 00:52:22;;;;;;;43.28;22.50;;;7.00;93.60;;;;;;5054960;28;20025;-69
2021/01/01 00:54:47;;;;;;;51.45;23.05;;;7.00;93.70;;;;;;5056755;28;20060;-69
2021/01/01 00:57:13;;;;;;;49.55;22.00;;;7.00;93.70;;;;;;5054601;28;20746;-69
2021/01/01 00:59:39;;;;;;;49.95;22.58;;;6.90;93.60;;;;;;5054985;28;20021;-68
2021/01/01 01:02:05;;;;;;;43.00;21.52;;;7.00;93.70;;;;;;5055682;28;20478;-69
2021/01/01 01:04:30;;;;;;;49.80;23.20;;;7.00;93.70;;;;;;5055060;28;20036;-69
2021/01/01 01:06:56;;;;;;;55.80;24.35;;;7.00;93.80;;;;;;5055226;28;20033;-69
2021/01/01 01:09:22;;;;;;;50.33;23.27;;;7.00;93.80;;;;;;5055745;28;20442;-69
2021/01/01 01:11:48;;;;;;;52.83;24.83;;;7.00;93.70;;;;;;5056171;28;20191;-69
2021/01/01 01:14:14;;;;;;;53.65;25.40;;;7.00;93.70;;;;;;5055972;28;20071;-68
2021/01/01 01:16:39;;;;;;;65.07;29.83;;;7.00;93.70;;;;;;5053617;28;20033;-68
2021/01/01 01:19:05;;;;;;;55.00;26.67;;;6.90;93.70;;;;;;5040482;28;20029;-68
2021/01/01 01:21:31;;;;;;;56.08;27.35;;;6.90;93.70;;;;;;5055876;28;20021;-69
2021/01/01 01:23:57;;;;;;;50.17;25.98;;;6.90;93.70;;;;;;5053925;28;20383;-69
2021/01/01 01:26:23;;;;;;;58.35;28.00;;;6.90;93.60;;;;;;5054101;28;20060;-68
2021/01/01 01:28:50;;;;;;;58.03;26.90;;;6.90;93.50;;;;;;5054274;28;20036;-68
2021/01/01 01:31:16;;;;;;;47.17;25.88;;;6.90;93.60;;;;;;5055267;28;20060;-68
2021/01/01 01:33:42;;;;;;;51.92;25.05;;;6.90;93.60;;;;;;5054260;28;20056;-69
2021/01/01 01:36:07;;;;;;;56.88;28.13;;;6.90;93.60;;;;;;5054902;28;20478;-69
2021/01/01 01:38:33;;;;;;;51.60;26.83;;;6.80;93.50;;;;;;5048772;28;20108;-69
2021/01/01 01:40:59;;;;;;;69.00;31.25;;;6.80;93.50;;;;;;5047767;28;20033;-69
2021/01/01 01:43:25;;;;;;;46.97;23.27;;;6.80;93.60;;;;;;5055648;28;20029;-69
2021/01/01 01:45:54;;;;;;;55.33;26.85;;;6.80;93.60;;;;;;5054913;28;20037;-70
2021/01/01 01:48:24;;;;;;;52.42;26.25;;;6.80;93.50;;;;;;5055089;28;20020;-69
2021/01/01 01:50:50;;;;;;;64.07;31.67;;;6.70;93.40;;;;;;5045951;28;20021;-69
2021/01/01 01:53:17;;;;;;;48.90;23.27;;;6.70;93.30;;;;;;5049417;28;20028;-69
2021/01/01 01:55:43;;;;;;;51.25;25.30;;;6.60;93.10;;;;;;5055591;28;20046;-69
2021/01/01 01:58:09;;;;;;;46.03;23.67;;;6.60;92.80;;;;;;5053646;28;20029;-69
2021/01/01 02:03:19;;;;;;;50.05;23.95;;;6.40;92.90;;;;;;5054567;28;20116;-69
2021/01/01 02:05:44;;;;;;;48.17;23.90;;;6.40;92.90;;;;;;5041365;28;20092;-69
2021/01/01 02:08:11;;;;;;;48.72;24.90;;;6.30;93.00;;;;;;5053613;28;20029;-69
2021/01/01 02:10:37;;;;;;;52.85;24.33;;;6.30;93.00;;;;;;5053452;28;20061;-69
2021/01/01 02:13:03;;;;;;;56.05;25.17;;;6.20;93.00;;;;;;5055068;28;20064;-69
2021/01/01 02:15:30;;;;;;;58.90;28.63;;;6.20;93.00;;;;;;5054710;28;20033;-69
2021/01/01 02:17:59;;;;;;;54.78;25.95;;;6.20;93.00;;;;;;5054628;28;20459;-69
2021/01/01 02:20:25;;;;;;;52.70;25.77;;;6.10;93.00;;;;;;5054561;28;20391;-69
2021/01/01 02:22:51;;;;;;;53.00;25.27;;;6.10;93.00;;;;;;5054395;28;20017;-69
2021/01/01 02:25:17;;;;;;;52.60;24.55;;;6.10;93.10;;;;;;5053376;28;20253;-69
2021/01/01 02:27:43;;;;;;;53.28;25.88;;;6.00;93.10;;;;;;5053088;28;20029;-69
2021/01/01 02:30:09;;;;;;;48.03;23.67;;;6.00;93.10;;;;;;5054544;28;20458;-69
2021/01/01 02:32:35;;;;;;;54.55;26.02;;;5.90;93.10;;;;;;5054456;28;20056;-68
2021/01/01 02:35:01;;;;;;;50.33;24.42;;;5.90;93.10;;;;;;5054078;28;20021;-69
2021/01/01 02:37:27;;;;;;;50.47;23.42;;;5.90;93.20;;;;;;5053459;28;20044;-69
2021/01/01 02:39:54;;;;;;;53.30;25.17;;;5.90;93.30;;;;;;5052932;28;20463;-69
2021/01/01 02:42:19;;;;;;;52.42;23.67;;;5.80;93.30;;;;;;5054256;28;20066;-68
2021/01/01 02:44:47;;;;;;;57.38;25.35;;;5.90;93.30;;;;;;5052887;28;20030;-68
2021/01/01 02:47:16;;;;;;;49.20;23.40;;;5.80;93.40;;;;;;5054329;28;20028;-68
2021/01/01 02:49:42;;;;;;;53.78;23.67;;;5.80;93.50;;;;;;5054569;28;20029;-70
2021/01/01 02:52:09;;;;;;;58.85;26.25;;;5.80;93.50;;;;;;5053755;28;20040;-69
2021/01/01 02:54:35;;;;;;;49.78;23.38;;;5.80;93.40;;;;;;5054153;28;20033;-69
2021/01/01 02:57:00;;;;;;;50.60;24.85;;;5.80;93.40;;;;;;5049431;28;20495;-69
2021/01/01 02:59:26;;;;;;;48.80;24.17;;;5.80;93.40;;;;;;5040136;28;20049;-69
2021/01/01 03:01:53;;;;;;;48.05;23.63;;;5.80;93.40;;;;;;5049917;28;20460;-69
2021/01/01 03:04:19;;;;;;;56.45;24.92;;;5.80;93.40;;;;;;5053826;28;20070;-69
2021/01/01 03:06:44;;;;;;;48.38;23.33;;;5.80;93.40;;;;;;5053324;28;20037;-70
2021/01/01 03:09:10;;;;;;;48.55;22.77;;;5.70;93.40;;;;;;5052076;28;20021;-68
2021/01/01 03:11:36;;;;;;;47.92;22.70;;;5.70;93.40;;;;;;5053722;28;20104;-69
2021/01/01 03:14:02;;;;;;;46.88;24.08;;;5.70;93.50;;;;;;5039193;28;20047;-69
2021/01/01 03:16:27;;;;;;;52.92;25.73;;;5.70;93.50;;;;;;5052170;28;20438;-70
2021/01/01 03:18:53;;;;;;;53.85;24.85;;;5.70;93.50;;;;;;5053053;28;20036;-69
2021/01/01 03:21:20;;;;;;;52.63;23.48;;;5.70;93.50;;;;;;5052329;28;20382;-69
2021/01/01 03:23:46;;;;;;;47.25;22.80;;;5.70;93.50;;;;;;5052259;28;20075;-69
2021/01/01 03:26:12;;;;;;;46.95;22.73;;;5.70;93.50;;;;;;5051629;28;20033;-69
2021/01/01 03:28:38;;;;;;;52.63;22.13;;;5.70;93.80;;;;;;5053401;28;20036;-69
2021/01/01 03:31:04;;;;;;;49.22;23.65;;;5.70;93.50;;;;;;5053082;28;20123;-70
2021/01/01 03:33:29;;;;;;;50.08;22.00;;;5.70;93.60;;;;;;5053404;28;20048;-69
2021/01/01 03:35:55;;;;;;;53.13;23.33;;;5.70;93.60;;;;;;5052984;28;20060;-69
2021/01/01 03:38:21;;;;;;;55.60;23.65;;;5.70;93.60;;;;;;5052884;28;20021;-69
2021/01/01 03:40:47;;;;;;;50.10;24.17;;;5.70;93.60;;;;;;5053145;28;20100;-69
2021/01/01 03:43:13;;;;;;;47.72;21.58;;;5.70;93.50;;;;;;5048788;28;20044;-68
2021/01/01 03:45:39;;;;;;;59.10;27.10;;;5.70;93.60;;;;;;5041911;28;20068;-68
2021/01/01 03:48:06;;;;;;;56.28;24.80;;;5.70;93.50;;;;;;5052756;28;20435;-68
2021/01/01 03:50:32;;;;;;;62.00;26.33;;;5.70;93.50;;;;;;5052066;28;20029;-69
2021/01/01 03:52:57;;;;;;;55.78;24.88;;;5.70;93.60;;;;;;5053193;28;20411;-69
2021/01/01 03:55:23;;;;;;;50.83;24.95;;;5.70;93.90;;;;;;5052580;28;20029;-68
2021/01/01 03:57:49;;;;;;;56.28;26.15;;;5.70;93.60;;;;;;5053066;28;20033;-69
2021/01/01 04:00:15;;;;;;;60.22;26.95;;;5.70;93.70;;;;;;5051415;28;20032;-69
2021/01/01 04:02:41;;;;;;;56.33;25.48;;;5.70;93.70;;;;;;5052954;28;20028;-68
2021/01/01 04:05:07;;;;;;;57.00;26.90;;;5.70;93.70;;;;;;5051714;28;20025;-69
2021/01/01 04:07:33;;;;;;;63.45;28.33;;;5.80;93.70;;;;;;5052020;28;20044;-68
2021/01/01 04:09:59;;;;;;;59.35;27.50;;;5.70;93.70;;;;;;5052820;28;20028;-69
2021/01/01 04:12:25;;;;;;;61.72;27.20;;;5.80;93.70;;;;;;5052833;28;20021;-69
2021/01/01 04:14:50;;;;;;;61.65;28.65;;;5.80;93.70;;;;;;5051496;28;20029;-69
2021/01/01 04:17:16;;;;;;;52.53;25.42;;;5.80;93.70;;;;;;5053096;28;20510;-69
2021/01/01 04:19:42;;;;;;;58.55;26.33;;;5.80;93.70;;;;;;5051691;28;20029;-68
2021/01/01 04:22:08;;;;;;;55.78;26.33;;;5.80;93.60;;;;;;5055139;28;20040;-69
2021/01/01 04:24:34;;;;;;;55.03;27.98;;;5.80;93.60;;;;;;5056683;28;20032;-69
2021/01/01 04:26:59;;;;;;;56.67;27.35;;;5.80;93.60;;;;;;5055317;28;20055;-69
2021/01/01 04:29:25;;;;;;;70.22;30.73;;;5.80;93.60;;;;;;5056596;28;20036;-72
2021/01/01 04:31:51;;;;;;;59.90;28.65;;;5.80;93.60;;;;;;5056265;28;20391;-68
2021/01/01 04:34:17;;;;;;;66.15;29.52;;;5.80;93.60;;;;;;5055370;28;20101;-68
2021/01/01 04:36:42;;;;;;;58.50;27.95;;;5.80;93.50;;;;;;5055019;28;20025;-68
2021/01/01 04:39:08;;;;;;;53.08;26.85;;;5.80;93.70;;;;;;5045168;28;20062;-68
2021/01/01 04:41:35;;;;;;;51.65;24.58;;;5.80;93.40;;;;;;5048958;28;20052;-68
2021/01/01 04:44:01;;;;;;;53.88;26.35;;;5.80;93.50;;;;;;5046085;28;20029;-68
2021/01/01 04:46:27;;;;;;;51.30;25.55;;;5.90;93.60;;;;;;5054972;28;20040;-68
2021/01/01 04:48:54;;;;;;;55.00;26.55;;;5.90;93.50;;;;;;5055179;28;20027;-68
2021/01/01 04:51:19;;;;;;;56.72;30.08;;;5.90;93.60;;;;;;5055116;28;20043;-68
2021/01/01 04:53:47;;;;;;;46.00;23.30;;;6.00;93.70;;;;;;5056329;28;20020;-68
2021/01/01 04:56:13;;;;;;;44.38;23.58;;;6.00;93.60;;;;;;5054617;28;20079;-68
2021/01/01 04:58:39;;;;;;;52.92;26.25;;;6.00;93.50;;;;;;5055755;28;20017;-68
2021/01/01 05:01:05;;;;;;;51.33;25.15;;;6.00;93.50;;;;;;5056058;28;20013;-67
2021/01/01 05:03:31;;;;;;;39.78;19.25;;;6.00;93.50;;;;;;5055827;28;20477;-68
2021/01/01 05:05:57;;;;;;;43.10;24.05;;;6.00;93.30;;;;;;5054483;28;20475;-68
2021/01/01 05:08:23;;;;;;;41.28;22.77;;;6.10;93.30;;;;;;5054637;28;20036;-76
2021/01/01 05:10:50;;;;;;;47.72;21.67;;;6.10;93.60;;;;;;5055809;28;20044;-68
2021/01/01 05:13:20;;;;;;;41.25;21.63;;;6.10;93.30;;;;;;5056087;28;20040;-68
2021/01/01 05:15:48;;;;;;;41.08;21.65;;;6.10;93.30;;;;;;5055704;28;20032;-67
2021/01/01 05:18:22;;;;;;;40.88;21.42;;;6.10;93.20;;;;;;5055821;28;20020;-67
2021/01/01 05:20:53;;;;;;;43.20;20.58;;;6.10;93.10;;;;;;5041690;28;20021;-68
2021/01/01 05:23:25;;;;;;;39.40;20.50;;;6.10;93.00;;;;;;5054202;28;20025;-68
2021/01/01 05:26:11;;;;;;;37.10;20.85;;;6.10;93.00;;;;;;5053863;28;20040;-69
2021/01/01 05:29:07;;;;;;;45.70;21.83;;;6.10;93.00;;;;;;5035871;28;20026;-67
2021/01/01 05:31:42;;;;;;;46.45;22.58;;;6.10;93.10;;;;;;5053569;28;20041;-68
2021/01/01 05:34:10;;;;;;;44.38;22.48;;;6.20;93.20;;;;;;5055213;28;20487;-68
2021/01/01 05:36:38;;;;;;;52.60;26.02;;;6.20;93.20;;;;;;5055367;28;20371;-68
2021/01/01 05:39:14;;;;;;;42.05;21.02;;;6.30;93.50;;;;;;5054120;28;20021;-68
2021/01/01 05:41:40;;;;;;;;;;;6.30;93.20;;;;;;5054397;28;20140;-68
2021/01/01 05:44:28;;;;;;;40.33;22.25;;;6.40;93.20;;;;;;5055044;28;19909;-68
2021/01/01 05:47:01;;;;;;;41.65;20.55;;;6.40;93.10;;;;;;5053751;28;20383;-68
2021/01/01 05:49:38;;;;;;;45.00;21.17;;;6.40;93.10;;;;;;5053945;28;20029;-68
2021/01/01 05:52:18;;;;;;;47.80;21.98;;;6.50;93.10;;;;;;5055122;28;20032;-69
2021/01/01 05:54:49;;;;;;;43.95;21.25;;;6.50;93.00;;;;;;5055194;28;20025;-70
2021/01/01 05:57:15;;;;;;;44.20;23.48;;;6.50;92.90;;;;;;5041465;28;20037;-68
2021/01/01 05:59:44;;;;;;;45.88;22.52;;;6.50;92.90;;;;;;5053785;28;20029;-68
2021/01/01 06:02:11;;;;;;;46.17;23.08;;;6.60;92.80;;;;;;5053305;28;20082;-68
2021/01/01 06:04:38;;;;;;;43.88;21.40;;;6.60;92.80;;;;;;5054683;28;20024;-68
2021/01/01 06:07:06;;;;;;;39.35;20.65;;;6.60;92.70;;;;;;5054396;28;20115;-69
2021/01/01 06:09:33;;;;;;;39.10;22.00;;;6.60;92.70;;;;;;5053384;28;20036;-68
2021/01/01 06:12:06;;;;;;;39.58;21.08;;;6.60;92.60;;;;;;5054579;28;20047;-69
2021/01/01 06:14:34;;;;;;;39.30;20.38;;;6.60;92.50;;;;;;5053622;28;20029;-68
2021/01/01 06:17:16;;;;;;;34.75;20.05;;;6.60;92.40;;;;;;5052188;28;20116;-69
2021/01/01 06:19:45;;;;;;;35.72;18.80;;;6.60;92.40;;;;;;5044677;28;20137;-68
2021/01/01 06:22:18;;;;;;;39.90;20.40;;;6.60;92.30;;;;;;5054360;28;20031;-68
2021/01/01 06:24:53;;;;;;;34.83;18.95;;;6.60;92.40;;;;;;5054998;28;20021;-67
2021/01/01 06:27:21;;;;;;;33.22;17.38;;;6.70;92.40;;;;;;5054704;28;20041;-68
2021/01/01 06:29:57;;;;;;;29.33;16.15;;;6.70;92.60;;;;;;5054726;28;20025;-68
2021/01/01 06:32:23;;;;;;;26.80;14.65;;;6.80;92.80;;;;;;5053416;28;20053;-69
2021/01/01 06:34:51;;;;;;;26.15;14.65;;;7.00;92.90;;;;;;5054069;28;20087;-69
2021/01/01 06:37:44;;;;;;;25.77;13.38;;;7.00;92.90;;;;;;5054532;28;20097;-69
2021/01/01 06:40:22;;;;;;;26.92;14.30;;;7.20;92.90;;;;;;5052724;28;20068;-69
2021/01/01 06:42:53;;;;;;;23.67;13.70;;;7.30;92.70;;;;;;5053740;28;20078;-69
2021/01/01 06:45:41;;;;;;;22.10;12.88;;;7.40;92.60;;;;;;5040530;28;20425;-69
2021/01/01 06:48:07;;;;;;;26.88;13.63;;;7.50;92.50;;;;;;5052744;28;20087;-69
2021/01/01 06:50:35;;;;;;;21.95;12.65;;;7.60;92.20;;;;;;5054448;28;20029;-69
2021/01/01 06:53:15;;;;;;;25.83;13.93;;;7.60;92.10;;;;;;5055788;28;20044;-69
2021/01/01 06:55:50;;;;;;;29.92;15.75;;;7.60;91.90;;;;;;5041478;28;20029;-70
2021/01/01 06:58:25;;;;;;;26.53;15.13;;;7.60;91.80;;;;;;5052177;28;20037;-69
2021/01/01 07:00:52;;;;;;;29.73;15.23;;;7.60;91.70;;;;;;5042286;28;20297;-69
2021/01/01 07:03:27;;;;;;;30.40;15.55;;;7.50;91.80;;;;;;5052524;28;20033;-71
2021/01/01 07:05:57;;;;;;;25.75;11.98;;;7.50;91.90;;;;;;5053714;28;20374;-70
2021/01/01 07:08:44;;;;;;;34.97;17.23;;;7.60;91.90;;;;;;5039081;28;20033;-78
2021/01/01 07:11:10;;;;;;;27.30;15.13;;;7.60;92.00;;;;;;5052245;28;20081;-69
2021/01/01 07:13:43;;;;;;;28.08;16.65;;;7.60;92.10;;;;;;5052890;28;20394;-70
2021/01/01 07:16:09;;;;;;;25.85;13.98;;;7.60;92.20;;;;;;5032431;28;20732;-69
2021/01/01 07:18:36;;;;;;;26.52;14.57;;;7.60;92.10;;;;;;5046015;28;20033;-75
2021/01/01 07:21:07;;;;;;;26.10;14.32;;;7.60;92.10;;;;;;5049110;28;20028;-69
2021/01/01 07:23:33;;;;;;;29.30;14.20;;;7.60;92.10;;;;;;5042327;28;20113;-70
2021/01/01 07:26:00;;;;;;;22.92;13.63;;;7.60;92.20;;;;;;5054487;28;20037;-70
2021/01/01 07:28:27;;;;;;;27.02;15.20;;;7.60;92.20;;;;;;5039652;28;20035;-71
2021/01/01 07:30:53;;;;;;;26.30;13.65;;;7.70;92.30;;;;;;5036472;28;20036;-70
2021/01/01 07:33:25;;;;;;;28.45;15.95;;;7.70;92.30;;;;;;5045617;28;20083;-76
2021/01/01 07:35:52;;;;;;;32.55;15.18;;;7.70;92.40;;;;;;5045642;28;20030;-70
2021/01/01 07:38:22;;;;;;;31.83;16.40;;;7.80;92.40;;;;;;5036607;28;20106;-70
2021/01/01 07:40:49;;;;;;;34.63;17.08;;;7.70;92.30;;;;;;5034647;28;20476;-71
2021/01/01 07:43:15;;;;;;;23.10;11.13;;;7.80;92.40;;;;;;5039883;28;20017;-71
2021/01/01 07:45:41;;;;;;;34.03;16.83;;;7.80;92.30;;;;;;5034356;28;20482;-70
2021/01/01 07:48:07;;;;;;;24.25;11.55;;;7.80;92.40;;;;;;5036565;28;20031;-70
2021/01/01 07:50:34;;;;;;;31.88;14.60;;;7.90;92.40;;;;;;5033108;28;20034;-71
2021/01/01 07:53:01;;;;;;;24.63;11.05;;;7.80;92.40;;;;;;5060752;28;20032;-72
2021/01/01 07:55:27;;;;;;;30.90;16.38;;;7.90;92.50;;;;;;5036680;28;20097;-71
2021/01/01 07:57:59;;;;;;;31.70;15.35;;;7.90;92.50;;;;;;5043558;28;20114;-70
2021/01/01 08:00:29;;;;;;;27.65;14.13;;;7.90;92.50;;;;;;5051234;28;20025;-71
2021/01/01 08:02:55;;;;;;;33.03;15.35;;;7.90;92.40;;;;;;5041027;28;20045;-71
2021/01/01 08:05:21;;;;;;;25.38;11.77;;;7.90;92.50;;;;;;5037281;28;20126;-71
2021/01/01 08:07:46;;;;;;;25.48;12.13;;;7.90;92.50;;;;;;5036502;28;20032;-70
2021/01/01 08:10:12;;;;;;;29.65;15.77;;;7.90;92.50;;;;;;5045559;28;20025;-70
2021/01/01 08:12:38;;;;;;;23.83;11.60;;;7.90;92.60;;;;;;5046712;28;20379;-73
2021/01/01 08:15:05;;;;;;;21.73;10.63;;;7.90;92.80;;;;;;5038851;28;20029;-72
2021/01/01 08:17:31;;;;;;;36.50;15.82;;;7.90;92.80;;;;;;5037175;28;20048;-71
2021/01/01 08:19:57;;;;;;;31.88;15.48;;;8.00;92.90;;;;;;5037364;28;20444;-71
2021/01/01 08:22:33;;;;;;;31.38;16.13;;;8.00;93.00;;;;;;5050983;28;20025;-70
2021/01/01 08:25:00;;;;;;;34.00;16.00;;;8.00;93.10;;;;;;5035974;28;20026;-71
2021/01/01 08:27:26;;;;;;;31.65;17.08;;;8.00;93.10;;;;;;5044699;28;20108;-76
2021/01/01 08:29:54;;;;;;;25.73;13.10;;;8.10;93.20;;;;;;5043581;28;20030;-69
2021/01/01 08:32:21;;;;;;;31.33;16.52;;;8.10;93.10;;;;;;5038121;28;20131;-70
2021/01/01 08:34:51;;;;;;;31.15;15.77;;;8.10;93.10;;;;;;5051631;28;20424;-70
2021/01/01 08:37:18;;;;;;;35.33;16.17;;;8.10;93.10;;;;;;5044727;28;20059;-70
2021/01/01 08:39:44;;;;;;;33.40;16.77;;;8.10;93.10;;;;;;5041303;28;20036;-69
2021/01/01 08:42:20;;;;;;;24.85;11.07;;;8.10;93.10;;;;;;5051676;28;20033;-70
2021/01/01 08:44:46;;;;;;;31.92;13.77;;;8.20;93.30;;;;;;5044846;28;20459;-70
2021/01/01 08:47:12;;;;;;;28.65;12.98;;;8.20;93.30;;;;;;5051780;28;20083;-70
2021/01/01 08:49:38;;;;;;;25.52;13.52;;;8.20;93.30;;;;;;5052165;28;20080;-70
2021/01/01 08:52:12;;;;;;;27.70;15.55;;;8.30;93.40;;;;;;5037625;28;20059;-71
2021/01/01 08:54:37;;;;;;;24.77;11.75;;;8.40;93.50;;;;;;5039488;28;20036;-76
2021/01/01 08:57:04;;;;;;;26.80;12.60;;;8.40;93.50;;;;;;5046123;28;20455;-70
2021/01/01 08:59:30;;;;;;;33.38;14.85;;;8.40;93.50;;;;;;5050296;28;20029;-76
2021/01/01 09:01:59;;;;;;;26.90;13.38;;;8.40;93.50;;;;;;5050012;28;20029;-70
2021/01/01 09:04:26;;;;;;;30.08;14.05;;;8.50;93.60;;;;;;5044325;28;20045;-70
2021/01/01 09:07:04;;;;;;;26.42;13.95;;;8.60;93.60;;;;;;5046899;28;20463;-70
2021/01/01 09:09:31;;;;;;;30.30;16.17;;;8.60;93.60;;;;;;5049718;28;20021;-70
2021/01/01 09:12:20;;;;;;;29.50;14.80;;;8.70;93.80;;;;;;5052400;28;20486;-69
2021/01/01 09:14:46;;;;;;;32.47;15.40;;;8.80;93.60;;;;;;5048274;28;20029;-69
2021/01/01 09:17:12;;;;;;;26.85;15.20;;;8.80;93.60;;;;;;5052646;28;20044;-70
2021/01/01 09:19:38;;;;;;;25.80;12.93;;;8.90;93.70;;;;;;5045365;28;20028;-71
2021/01/01 09:22:14;;;;;;;31.10;15.38;;;9.00;93.70;;;;;;5054598;28;20025;-70
2021/01/01 09:24:40;;;;;;;29.92;12.88;;;9.00;93.90;;;;;;5040820;28;20021;-70
2021/01/01 09:27:06;;;;;;;24.05;11.88;;;9.10;93.40;;;;;;5042205;28;20051;-71
2021/01/01 09:29:32;;;;;;;28.17;15.50;;;9.10;93.40;;;;;;5044380;28;20024;-70
2021/01/01 09:31:58;;;;;;;30.20;15.57;;;9.20;93.50;;;;;;5034732;28;20099;-69
2021/01/01 09:34:23;;;;;;;28.30;14.68;;;9.20;93.50;;;;;;5041969;28;20032;-69
2021/01/01 09:36:49;;;;;;;19.52;9.90;;;9.20;93.40;;;;;;5045040;28;20420;-70
2021/01/01 09:39:15;;;;;;;25.60;12.98;;;9.30;93.20;;;;;;5046441;28;20464;-70
2021/01/01 09:41:48;;;;;;;27.98;14.65;;;9.40;93.00;;;;;;5047234;28;20056;-71
2021/01/01 09:44:14;;;;;;;26.88;15.35;;;9.40;93.10;;;;;;5045734;28;20147;-71
2021/01/01 09:46:44;;;;;;;24.58;12.75;;;9.40;93.20;;;;;;5038316;28;20474;-71
2021/01/01 09:49:10;;;;;;;25.98;13.82;;;9.40;93.00;;;;;;5044110;28;20040;-71
2021/01/01 09:51:38;;;;;;;22.23;11.65;;;9.40;92.90;;;;;;5044539;28;20037;-70
2021/01/01 09:54:04;;;;;;;24.48;12.15;;;9.40;92.70;;;;;;5046221;28;20025;-72
2021/01/01 09:56:34;;;;;;;25.10;13.40;;;9.40;92.60;;;;;;5035330;28;20045;-71
2021/01/01 09:59:01;;;;;;;27.95;14.90;;;9.40;92.80;;;;;;5052511;28;20021;-74
2021/01/01 10:01:31;;;;;;;25.20;12.80;;;9.40;92.90;;;;;;5039802;28;20113;-71
2021/01/01 10:03:57;;;;;;;26.38;14.25;;;9.40;92.90;;;;;;5063843;28;20033;-72
2021/01/01 10:06:23;;;;;;;28.42;13.50;;;9.40;92.70;;;;;;5049744;28;20029;-71
2021/01/01 10:08:49;;;;;;;18.05;10.93;;;9.40;92.70;;;;;;5049056;28;20083;-70
2021/01/01 10:11:16;;;;;;;27.08;13.13;;;9.40;92.70;;;;;;5048019;28;20025;-71
2021/01/01 10:13:42;;;;;;;25.52;14.32;;;9.40;92.70;;;;;;5046197;28;20462;-71
2021/01/01 10:16:12;;;;;;;24.77;13.95;;;9.40;92.70;;;;;;5041972;28;20072;-72
2021/01/01 10:18:38;;;;;;;19.88;9.27;;;9.40;92.80;;;;;;5033213;28;20061;-71
2021/01/01 10:21:05;;;;;;;27.73;13.50;;;9.40;92.80;;;;;;5040047;28;20033;-70
2021/01/01 10:23:30;;;;;;;25.05;13.82;;;9.50;92.80;;;;;;5044556;28;20025;-71
2021/01/01 10:25:56;;;;;;;19.65;9.70;;;9.50;92.80;;;;;;5051648;28;20379;-72
2021/01/01 10:28:22;;;;;;;23.45;12.45;;;9.50;92.90;;;;;;5046681;28;20036;-69
2021/01/01 10:30:48;;;;;;;17.30;8.65;;;9.50;92.70;;;;;;5040551;28;20025;-72
2021/01/01 10:33:14;;;;;;;16.83;8.95;;;9.60;92.80;;;;;;5050086;28;20053;-70
2021/01/01 10:35:40;;;;;;;19.75;9.23;;;9.60;92.60;;;;;;5049179;28;20099;-71
2021/01/01 10:38:06;;;;;;;24.00;10.57;;;9.60;92.50;;;;;;5043695;28;20044;-71
2021/01/01 10:40:32;;;;;;;17.85;10.10;;;9.60;92.50;;;;;;5049666;28;20052;-72
2021/01/01 10:42:58;;;;;;;15.57;7.13;;;9.60;92.50;;;;;;5037779;28;20494;-71
2021/01/01 10:45:24;;;;;;;20.00;11.18;;;9.60;92.30;;;;;;5044731;28;20021;-71
2021/01/01 10:47:50;;;;;;;22.25;11.50;;;9.60;92.30;;;;;;5043515;28;20082;-81
2021/01/01 10:50:15;;;;;;;21.92;9.60;;;9.60;92.40;;;;;;5046898;28;20056;-70
2021/01/01 10:52:41;;;;;;;25.90;12.23;;;9.60;92.50;;;;;;5034650;28;20061;-72
2021/01/01 10:55:08;;;;;;;23.55;11.15;;;9.60;92.30;;;;;;5039561;28;20037;-70
2021/01/01 10:57:33;;;;;;;16.55;8.73;;;9.60;92.30;;;;;;5048701;28;20033;-70
2021/01/01 10:59:59;;;;;;;20.80;9.55;;;9.60;92.40;;;;;;5043385;28;20028;-70
2021/01/01 11:02:25;;;;;;;23.67;11.98;;;9.70;92.30;;;;;;5035804;28;20022;-70
2021/01/01 11:04:50;;;;;;;24.30;12.32;;;9.70;92.20;;;;;;5038359;28;20108;-70
2021/01/01 11:07:16;;;;;;;23.00;13.32;;;9.60;92.10;;;;;;5036188;28;21190;-71
2021/01/01 11:09:42;;;;;;;24.75;12.48;;;9.60;92.20;;;;;;5039941;28;20067;-71
2021/01/01 11:12:08;;;;;;;28.45;12.23;;;9.60;92.20;;;;;;5038616;28;20064;-71
2021/01/01 11:14:56;;;;;;;28.10;13.32;;;9.60;92.30;;;;;;5044504;28;20456;-69
2021/01/01 12:27:01;;;;;;;29.55;13.98;;;9.40;92.40;;;;;;5040146;28;20047;-69
2021/01/01 12:29:28;;;;;;;33.55;17.65;;;9.40;92.30;;;;;;5047269;28;20100;-68
2021/01/01 12:31:57;;;;;;;38.47;16.80;;;9.40;92.40;;;;;;5040875;28;20045;-70
2021/01/01 12:34:22;;;;;;;38.92;18.80;;;9.40;92.50;;;;;;5044657;28;20038;-74
2021/01/01 12:36:48;;;;;;;33.55;15.43;;;9.40;92.50;;;;;;5051109;28;20017;-71
2021/01/01 12:39:14;;;;;;;38.45;16.80;;;9.30;92.50;;;;;;5040871;28;20730;-69
2021/01/01 12:41:40;;;;;;;33.35;16.48;;;9.30;92.50;;;;;;5045315;28;20100;-70
2021/01/01 12:44:05;;;;;;;31.40;16.17;;;9.30;92.60;;;;;;5053126;28;20455;-69
2021/01/01 12:46:31;;;;;;;37.10;15.48;;;9.30;92.70;;;;;;5038560;28;20067;-70
2021/01/01 12:48:57;;;;;;;29.48;16.85;;;9.30;92.70;;;;;;5041191;28;20032;-70
2021/01/01 12:51:23;;;;;;;35.20;17.27;;;9.30;92.70;;;;;;5046018;28;20108;-71
2021/01/01 12:53:49;;;;;;;42.72;20.40;;;9.30;92.80;;;;;;5050443;28;20025;-69
2021/01/01 12:56:14;;;;;;;43.55;18.42;;;9.30;92.90;;;;;;5036987;28;20029;-69
2021/01/01 12:58:40;;;;;;;34.97;17.92;;;9.30;92.90;;;;;;5045840;28;20053;-70
2021/01/01 13:01:06;;;;;;;39.67;19.02;;;9.30;92.90;;;;;;5047690;28;20025;-69
2021/01/01 13:03:32;;;;;;;32.30;17.63;;;9.40;93.00;;;;;;5045635;28;20129;-69
2021/01/01 13:05:59;;;;;;;32.47;16.77;;;9.30;93.00;;;;;;5045067;28;20049;-70
2021/01/01 13:08:25;;;;;;;43.22;21.08;;;9.40;93.00;;;;;;5036287;28;20406;-69
2021/01/01 13:10:51;;;;;;;45.38;22.80;;;9.30;92.70;;;;;;5047554;28;20107;-70
2021/01/01 13:13:17;;;;;;;45.90;22.02;;;9.30;92.40;;;;;;5049084;28;20035;-71
2021/01/01 13:15:43;;;;;;;47.00;22.55;;;9.20;92.10;;;;;;5057678;28;20029;-70
2021/01/01 13:18:09;;;;;;;45.55;23.00;;;9.10;91.80;;;;;;5049856;28;20029;-71
2021/01/01 13:20:35;;;;;;;51.92;23.02;;;8.90;91.60;;;;;;5048669;28;20025;-72
2021/01/01 13:23:01;;;;;;;47.58;23.45;;;8.80;91.60;;;;;;5052666;28;20040;-69
2021/01/01 13:25:27;;;;;;;52.63;24.25;;;8.70;91.50;;;;;;5050308;28;20033;-74
2021/01/01 13:27:53;;;;;;;45.70;22.95;;;8.50;91.50;;;;;;5040945;28;20101;-69
2021/01/01 13:30:19;;;;;;;47.05;22.95;;;8.50;91.40;;;;;;5046434;28;20065;-70
2021/01/01 13:32:45;;;;;;;42.63;22.88;;;8.40;91.40;;;;;;5043067;28;20049;-75
2021/01/01 13:35:12;;;;;;;43.42;24.17;;;8.20;91.40;;;;;;5041977;28;20610;-72
2021/01/01 13:37:38;;;;;;;48.08;26.02;;;8.20;91.60;;;;;;5039304;28;20487;-70
2021/01/01 13:40:05;;;;;;;52.95;26.95;;;8.20;91.70;;;;;;5034964;28;20029;-71
2021/01/01 13:42:48;;;;;;;46.05;25.40;;;8.20;91.80;;;;;;5038209;28;20040;-74
2021/01/01 13:45:15;;;;;;;48.65;25.48;;;8.10;91.90;;;;;;5026311;28;20425;-71
2021/01/01 13:47:41;;;;;;;48.25;24.92;;;8.00;91.70;;;;;;5040098;28;20483;-75
2021/01/01 13:50:10;;;;;;;54.97;27.17;;;8.00;92.00;;;;;;5046088;28;20021;-69
2021/01/01 13:52:36;;;;;;;47.90;22.75;;;8.00;92.00;;;;;;5042862;28;20116;-70